createdAt,value
2023-06-07T00:00:13.214Z,11.13
2023-06-07T00:02:44.298Z,10.37
2023-06-07T00:05:13.825Z,7.83
2023-06-07T00:07:40.431Z,7.60
2023-06-07T00:10:07.337Z,12.80
2023-06-07T00:12:33.862Z,8.57
2023-06-07T00:15:03.643Z,14.47
2023-06-07T00:17:30.366Z,13.00
2023-06-07T00:19:57.166Z,10.50
2023-06-07T00:22:24.004Z,8.50
2023-06-07T00:24:50.604Z,18.57
2023-06-07T00:27:17.168Z,10.90
2023-06-07T00:29:43.755Z,13.40
2023-06-07T00:32:10.378Z,8.73
2023-06-07T00:34:36.936Z,7.20
2023-06-07T00:37:03.476Z,10.30
2023-06-07T00:39:30.112Z,8.10
2023-06-07T00:41:56.712Z,10.63
2023-06-07T00:44:23.905Z,17.43
2023-06-07T00:46:50.451Z,8.33
2023-06-07T00:49:17.472Z,5.80
2023-06-07T00:51:44.158Z,8.93
2023-06-07T00:54:10.773Z,6.40
2023-06-07T00:56:37.453Z,16.13
2023-06-07T00:59:03.987Z,7.60
2023-06-07T01:01:30.769Z,10.90
2023-06-07T01:03:57.346Z,11.80
2023-06-07T01:06:23.895Z,9.50
2023-06-07T01:08:50.939Z,13.50
2023-06-07T01:11:17.479Z,9.83
2023-06-07T01:13:44.024Z,13.30
2023-06-07T01:16:10.759Z,8.43
2023-06-07T01:18:37.288Z,9.00
2023-06-07T01:21:03.931Z,12.03
2023-06-07T01:23:30.509Z,9.77
2023-06-07T01:25:58.795Z,10.70
2023-06-07T01:28:25.518Z,8.93
2023-06-07T01:30:52.064Z,12.10
2023-06-07T01:33:18.623Z,9.57
2023-06-07T01:35:45.517Z,8.03
2023-06-07T01:38:12.057Z,10.83
2023-06-07T01:40:38.994Z,12.00
2023-06-07T01:43:05.779Z,8.50
2023-06-07T01:45:32.308Z,8.40
2023-06-07T01:47:58.897Z,13.13
2023-06-07T01:50:25.846Z,7.37
2023-06-07T01:52:52.379Z,10.27
2023-06-07T01:55:18.986Z,10.60
2023-06-07T01:57:45.612Z,8.97
2023-06-07T02:00:12.213Z,10.40
2023-06-07T02:02:38.901Z,9.53
2023-06-07T02:05:05.553Z,9.43
2023-06-07T02:07:32.069Z,13.10
2023-06-07T02:09:58.654Z,8.73
2023-06-07T02:12:25.473Z,11.93
2023-06-07T02:14:53.458Z,11.60
2023-06-07T02:17:20.803Z,15.17
2023-06-07T02:19:47.649Z,12.57
2023-06-07T02:22:15.030Z,9.70
2023-06-07T02:24:42.145Z,11.77
2023-06-07T02:27:09.385Z,12.73
2023-06-07T02:29:35.884Z,11.33
2023-06-07T02:32:02.427Z,15.10
2023-06-07T02:34:30.651Z,15.93
2023-06-07T02:36:58.078Z,12.63
2023-06-07T02:39:24.648Z,12.57
2023-06-07T02:41:51.261Z,13.17
2023-06-07T02:44:17.770Z,21.13
2023-06-07T02:46:44.357Z,8.50
2023-06-07T02:49:10.893Z,14.30
2023-06-07T02:51:38.452Z,8.60
2023-06-07T02:54:05.021Z,16.67
2023-06-07T02:56:33.734Z,12.80
2023-06-07T02:59:00.323Z,13.00
2023-06-07T03:01:28.324Z,10.50
2023-06-07T03:03:56.275Z,11.10
2023-06-07T03:06:22.812Z,18.33
2023-06-07T03:08:49.455Z,9.77
2023-06-07T03:11:15.975Z,12.83
2023-06-07T03:13:42.867Z,12.23
2023-06-07T03:16:09.466Z,13.67
2023-06-07T03:18:36.246Z,8.60
2023-06-07T03:21:03.425Z,12.30
2023-06-07T03:23:31.227Z,10.70
2023-06-07T03:25:59.894Z,17.03
2023-06-07T03:28:26.514Z,11.67
2023-06-07T03:30:53.071Z,18.97
2023-06-07T03:33:19.669Z,12.50
2023-06-07T03:35:46.703Z,8.57
2023-06-07T03:38:13.288Z,13.80
2023-06-07T03:40:39.803Z,15.33
2023-06-07T03:43:06.393Z,28.53
2023-06-07T03:45:32.962Z,13.73
2023-06-07T03:47:59.726Z,12.50
2023-06-07T03:50:26.318Z,13.60
2023-06-07T03:52:52.849Z,13.57
2023-06-07T03:55:21.002Z,18.53
2023-06-07T03:57:47.586Z,11.33
2023-06-07T04:00:15.968Z,10.40
2023-06-07T04:02:42.721Z,10.90
2023-06-07T04:05:10.533Z,9.73
2023-06-07T04:07:39.169Z,14.93
2023-06-07T04:10:06.304Z,11.10
2023-06-07T04:12:33.101Z,10.93
2023-06-07T04:14:59.615Z,15.77
2023-06-07T04:17:26.259Z,20.77
2023-06-07T04:19:57.398Z,10.47
2023-06-07T04:22:24.087Z,18.57
2023-06-07T04:24:51.137Z,15.33
2023-06-07T04:27:19.333Z,14.60
2023-06-07T04:29:49.956Z,15.37
2023-06-07T04:32:19.964Z,14.73
2023-06-07T04:34:46.873Z,14.93
2023-06-07T04:37:13.677Z,29.67
2023-06-07T04:39:42.121Z,24.57
2023-06-07T04:42:10.133Z,19.53
2023-06-07T04:44:38.056Z,22.27
2023-06-07T04:47:09.237Z,27.63
2023-06-07T04:49:39.473Z,8.80
2023-06-07T04:52:06.770Z,13.70
2023-06-07T04:54:37.385Z,12.17
2023-06-07T04:57:04.448Z,10.40
2023-06-07T04:59:35.695Z,14.20
2023-06-07T05:02:03.033Z,12.37
2023-06-07T05:04:31.954Z,19.47
2023-06-07T05:06:59.438Z,19.93
2023-06-07T05:09:28.699Z,20.50
2023-06-07T05:11:57.084Z,14.50
2023-06-07T05:14:23.610Z,12.90
2023-06-07T05:16:50.157Z,22.73
2023-06-07T05:19:18.050Z,16.60
2023-06-07T05:21:44.640Z,28.47
2023-06-07T05:24:11.408Z,19.10
2023-06-07T05:26:38.512Z,21.03
2023-06-07T05:29:05.127Z,24.70
2023-06-07T05:31:31.770Z,12.53
2023-06-07T05:33:58.445Z,12.03
2023-06-07T05:36:24.960Z,21.47
2023-06-07T05:38:51.635Z,14.33
2023-06-07T05:41:18.294Z,16.60
2023-06-07T05:43:45.346Z,18.63
2023-06-07T05:46:12.098Z,20.90
2023-06-07T05:48:38.618Z,13.40
2023-06-07T05:51:08.203Z,20.33
2023-06-07T05:53:35.082Z,16.50
2023-06-07T05:56:01.641Z,19.43
2023-06-07T05:58:28.308Z,17.17
2023-06-07T06:00:55.325Z,18.33
2023-06-07T06:03:22.591Z,18.90
2023-06-07T06:05:49.252Z,19.60
2023-06-07T06:08:16.852Z,13.77
2023-06-07T06:10:45.676Z,15.80
2023-06-07T06:13:12.395Z,15.57
2023-06-07T06:15:38.960Z,24.50
2023-06-07T06:18:05.752Z,21.70
2023-06-07T06:20:34.816Z,23.50
2023-06-07T06:23:01.789Z,14.60
2023-06-07T06:25:29.700Z,20.80
2023-06-07T06:27:56.334Z,17.03
2023-06-07T06:30:24.588Z,20.17
2023-06-07T06:32:53.439Z,17.73
2023-06-07T06:44:46.831Z,20.83
2023-06-07T06:47:25.859Z,22.73
2023-06-07T06:50:40.272Z,22.63
2023-06-07T06:53:07.442Z,19.27
2023-06-07T06:55:42.398Z,20.53
2023-06-07T06:58:36.870Z,19.07
2023-06-07T07:01:06.864Z,17.80
2023-06-07T07:03:41.684Z,28.63
2023-06-07T07:06:13.576Z,33.40
2023-06-07T07:11:34.318Z,23.03
2023-06-07T08:18:53.182Z,14.73
2023-06-07T08:21:20.858Z,15.93
2023-06-07T08:23:58.828Z,18.50
2023-06-07T08:26:26.231Z,15.40
2023-06-07T08:29:01.160Z,15.57
2023-06-07T08:31:37.499Z,13.53
2023-06-07T08:34:13.411Z,13.80
2023-06-07T08:36:51.728Z,14.53
2023-06-07T08:39:22.066Z,18.33
2023-06-07T08:42:07.118Z,16.67
2023-06-07T08:44:36.942Z,18.57
2023-06-07T08:47:10.639Z,18.20
2023-06-07T08:49:41.113Z,23.13
2023-06-07T08:52:16.280Z,20.53
2023-06-07T08:54:47.156Z,18.23
2023-06-07T08:57:20.096Z,20.47
2023-06-07T09:00:00.360Z,23.90
2023-06-07T09:02:32.628Z,24.27
2023-06-07T09:05:12.062Z,35.00
2023-06-07T09:07:40.980Z,30.43
2023-06-07T09:10:11.593Z,26.53
2023-06-07T09:12:42.536Z,26.00
2023-06-07T09:15:13.692Z,21.90
2023-06-07T09:17:47.334Z,19.77
2023-06-07T09:20:15.278Z,25.63
2023-06-07T09:22:51.537Z,22.10
2023-06-07T09:25:42.294Z,32.10
2023-06-07T09:28:14.240Z,18.97
2023-06-07T09:30:45.220Z,21.10
2023-06-07T09:33:31.483Z,26.17
2023-06-07T09:36:03.361Z,19.03
2023-06-07T09:38:35.474Z,21.07
2023-06-07T09:41:15.099Z,19.87
2023-06-07T09:43:42.743Z,20.97
2023-06-07T09:46:16.139Z,23.67
2023-06-07T09:48:44.268Z,26.90
2023-06-07T09:51:17.672Z,27.07
2023-06-07T09:53:45.208Z,28.37
2023-06-07T09:56:12.827Z,21.13
2023-06-07T09:58:40.362Z,32.50
2023-06-07T10:01:07.744Z,26.40
2023-06-07T10:03:35.957Z,24.50
2023-06-07T10:06:03.433Z,22.83
2023-06-07T10:08:30.912Z,24.00
2023-06-07T10:11:02.045Z,24.03
2023-06-07T10:13:29.463Z,22.47
2023-06-07T10:15:56.784Z,27.03
2023-06-07T10:18:28.354Z,22.07
2023-06-07T10:20:59.366Z,22.23
2023-06-07T10:23:28.710Z,25.20
2023-06-07T10:25:56.887Z,29.70
2023-06-07T10:28:24.817Z,24.97
2023-06-07T10:30:52.327Z,28.13
2023-06-07T10:33:20.374Z,32.47
2023-06-07T10:35:48.094Z,24.87
2023-06-07T10:38:15.769Z,39.37
2023-06-07T10:40:44.607Z,28.87
2023-06-07T10:43:11.639Z,25.77
2023-06-07T10:45:38.733Z,29.87
2023-06-07T10:48:06.238Z,33.37
2023-06-07T10:50:33.778Z,34.10
2023-06-07T10:53:01.111Z,28.90
2023-06-07T10:55:28.886Z,31.30
2023-06-07T10:58:00.195Z,32.13
2023-06-07T11:00:28.292Z,33.07
2023-06-07T11:02:55.901Z,36.43
2023-06-07T11:05:33.839Z,35.63
2023-06-07T11:08:01.968Z,29.90
2023-06-07T11:10:29.453Z,38.20
2023-06-07T11:12:59.097Z,26.33
2023-06-07T11:15:31.696Z,32.27
2023-06-07T11:17:59.443Z,32.60
2023-06-07T11:20:46.917Z,27.77
2023-06-07T11:23:16.224Z,28.10
2023-06-07T11:25:43.307Z,24.87
2023-06-07T11:28:13.785Z,30.87
2023-06-07T11:30:42.053Z,31.30
2023-06-07T11:33:12.522Z,26.83
2023-06-07T11:35:39.824Z,29.60
2023-06-07T11:38:06.913Z,32.07
2023-06-07T11:40:34.628Z,30.43
2023-06-07T11:43:02.209Z,31.03
2023-06-07T11:45:30.083Z,30.17
2023-06-07T11:48:02.433Z,25.40
2023-06-07T11:50:29.950Z,26.07
2023-06-07T11:53:04.549Z,28.77
2023-06-07T12:01:26.119Z,32.97
